Woensdrecht, Netherlands
Current Conditions -  °F | °C
As of 11:55 AM on Tuesday 21 Oct 2014 (Local Time) from EHWO Reporting Station
Overcast Overcast  
Wind Chill: 55°   Ceiling: 1000
Heat Index: 55°   Visibility: 6mi
Dew Point: 52°   Wind: 15mph
Humidity: 88%   Direction: 210°SSW
Pressure: 29.56"   Gusts: 28mph
Location:  51.43°N, 4.3°E
Report Text: EHWO 210955Z AUTO 21013G24KT 9999 FEW009 BKN010 OVC013 13/11 Q1001 GRN 22012KT 8000 -RADZ FEW012 SCT015 BKN035 TEMPO 22012G26KT 4500 RADZ FEW008 BKN010 BKN025
Loading
Personal Weather Stations






























Interactive Weather Map
Tropical Storm Tracking
New forecast layout! Learn more

10-Day Weather Forecast

Advertisements
Track Severe Weather on mobile